Terminal Aerodrome Forecast
Issued by NWS

Current Version | Previous Version | Graphics & Text | Print | Product List | Glossary On
Versions: 1 2 3 4 5 6 7 8 9 10 11 12 13 14 15 16 17 18 19 20 21 22 23 24 25 26
981
FTUS41 KPBZ 281138
TAFHLG
TAF
KHLG 281138Z 2812/2912 07007KT 6SM -SHRA OVC025
      TEMPO 2812/2813 2SM -SHRA BR BKN015
     FM281800 08005KT P6SM VCSH BKN015
     FM282100 03008KT P6SM VCSH OVC010
     FM290300 36005KT 5SM BR VCSH OVC008=

USA.gov is the U.S. government's official web portal to all federal, state and local government web resources and services.